sensor_id;sensor_type;location;lat;lon;timestamp;temperature;humidity
81222;DHT22;70691;52.492;13.420;2023-08-12T00:00:19;21.20;55.40
81222;DHT22;70691;52.492;13.420;2023-08-12T00:02:45;21.10;55.80
81222;DHT22;70691;52.492;13.420;2023-08-12T00:05:12;21.00;56.20
81222;DHT22;70691;52.492;13.420;2023-08-12T00:07:39;21.10;55.90
81222;DHT22;70691;52.492;13.420;2023-08-12T00:10:07;21.10;55.80
81222;DHT22;70691;52.492;13.420;2023-08-12T00:12:33;21.00;56.00
81222;DHT22;70691;52.492;13.420;2023-08-12T00:14:59;21.00;56.20
81222;DHT22;70691;52.492;13.420;2023-08-12T00:17:26;21.00;56.50
81222;DHT22;70691;52.492;13.420;2023-08-12T00:19:51;21.00;56.40
81222;DHT22;70691;52.492;13.420;2023-08-12T00:22:17;21.10;55.70
81222;DHT22;70691;52.492;13.420;2023-08-12T00:24:43;21.20;55.40
81222;DHT22;70691;52.492;13.420;2023-08-12T00:27:08;21.30;55.30
81222;DHT22;70691;52.492;13.420;2023-08-12T00:29:35;21.20;55.60
81222;DHT22;70691;52.492;13.420;2023-08-12T00:32:01;21.10;56.00
81222;DHT22;70691;52.492;13.420;2023-08-12T00:34:26;21.10;56.00
81222;DHT22;70691;52.492;13.420;2023-08-12T00:36:52;21.00;56.00
81222;DHT22;70691;52.492;13.420;2023-08-12T00:39:18;21.10;56.00
81222;DHT22;70691;52.492;13.420;2023-08-12T00:41:43;21.00;56.00
81222;DHT22;70691;52.492;13.420;2023-08-12T00:44:09;21.00;56.20
81222;DHT22;70691;52.492;13.420;2023-08-12T00:46:36;20.90;56.40
81222;DHT22;70691;52.492;13.420;2023-08-12T00:49:02;20.90;56.40
81222;DHT22;70691;52.492;13.420;2023-08-12T00:51:29;20.80;56.70
81222;DHT22;70691;52.492;13.420;2023-08-12T00:53:54;20.80;56.90
81222;DHT22;70691;52.492;13.420;2023-08-12T00:56:22;20.90;56.70
81222;DHT22;70691;52.492;13.420;2023-08-12T00:58:48;21.00;55.90
81222;DHT22;70691;52.492;13.420;2023-08-12T01:01:14;21.00;56.00
81222;DHT22;70691;52.492;13.420;2023-08-12T01:03:41;21.10;55.80
81222;DHT22;70691;52.492;13.420;2023-08-12T01:06:07;21.00;55.80
81222;DHT22;70691;52.492;13.420;2023-08-12T01:08:34;21.00;55.80
81222;DHT22;70691;52.492;13.420;2023-08-12T01:11:10;21.10;55.30
81222;DHT22;70691;52.492;13.420;2023-08-12T01:13:44;21.20;55.20
81222;DHT22;70691;52.492;13.420;2023-08-12T01:16:13;21.10;55.40
81222;DHT22;70691;52.492;13.420;2023-08-12T01:18:41;21.00;55.60
81222;DHT22;70691;52.492;13.420;2023-08-12T01:21:09;20.90;55.70
81222;DHT22;70691;52.492;13.420;2023-08-12T01:23:38;20.90;55.90
81222;DHT22;70691;52.492;13.420;2023-08-12T01:26:04;20.80;55.90
81222;DHT22;70691;52.492;13.420;2023-08-12T01:28:30;20.80;56.00
81222;DHT22;70691;52.492;13.420;2023-08-12T01:31:42;20.80;56.30
81222;DHT22;70691;52.492;13.420;2023-08-12T01:34:20;20.80;56.60
81222;DHT22;70691;52.492;13.420;2023-08-12T01:36:54;20.70;56.60
81222;DHT22;70691;52.492;13.420;2023-08-12T01:39:21;20.70;56.60
81222;DHT22;70691;52.492;13.420;2023-08-12T01:41:48;20.80;56.30
81222;DHT22;70691;52.492;13.420;2023-08-12T01:44:14;20.80;57.30
81222;DHT22;70691;52.492;13.420;2023-08-12T01:46:39;20.80;56.20
81222;DHT22;70691;52.492;13.420;2023-08-12T01:49:07;20.70;56.30
81222;DHT22;70691;52.492;13.420;2023-08-12T01:51:33;20.80;56.00
81222;DHT22;70691;52.492;13.420;2023-08-12T01:53:58;20.80;55.90
81222;DHT22;70691;52.492;13.420;2023-08-12T01:56:24;20.70;56.00
81222;DHT22;70691;52.492;13.420;2023-08-12T01:58:50;20.70;56.30
81222;DHT22;70691;52.492;13.420;2023-08-12T02:01:15;20.70;56.10
81222;DHT22;70691;52.492;13.420;2023-08-12T02:03:41;20.70;56.10
81222;DHT22;70691;52.492;13.420;2023-08-12T02:06:06;20.70;56.20
81222;DHT22;70691;52.492;13.420;2023-08-12T02:08:32;20.60;56.40
81222;DHT22;70691;52.492;13.420;2023-08-12T02:10:58;20.60;56.30
81222;DHT22;70691;52.492;13.420;2023-08-12T02:13:23;20.50;56.60
81222;DHT22;70691;52.492;13.420;2023-08-12T02:15:49;20.60;56.50
81222;DHT22;70691;52.492;13.420;2023-08-12T02:18:14;20.70;56.30
81222;DHT22;70691;52.492;13.420;2023-08-12T02:20:41;20.60;56.50
81222;DHT22;70691;52.492;13.420;2023-08-12T02:23:06;20.60;56.30
81222;DHT22;70691;52.492;13.420;2023-08-12T02:25:32;20.60;56.30
81222;DHT22;70691;52.492;13.420;2023-08-12T02:27:58;20.60;56.40
81222;DHT22;70691;52.492;13.420;2023-08-12T02:30:23;20.50;56.50
81222;DHT22;70691;52.492;13.420;2023-08-12T02:32:49;20.60;56.20
81222;DHT22;70691;52.492;13.420;2023-08-12T02:35:17;20.60;56.30
81222;DHT22;70691;52.492;13.420;2023-08-12T02:37:43;20.60;56.20
81222;DHT22;70691;52.492;13.420;2023-08-12T02:40:09;20.60;56.50
81222;DHT22;70691;52.492;13.420;2023-08-12T02:42:36;20.50;56.50
81222;DHT22;70691;52.492;13.420;2023-08-12T02:45:01;20.60;56.60
81222;DHT22;70691;52.492;13.420;2023-08-12T02:47:28;20.60;56.20
81222;DHT22;70691;52.492;13.420;2023-08-12T02:49:53;20.60;56.10
81222;DHT22;70691;52.492;13.420;2023-08-12T02:52:19;20.60;56.40
81222;DHT22;70691;52.492;13.420;2023-08-12T02:54:45;20.60;56.50
81222;DHT22;70691;52.492;13.420;2023-08-12T02:57:10;20.60;56.50
81222;DHT22;70691;52.492;13.420;2023-08-12T02:59:36;20.50;56.40
81222;DHT22;70691;52.492;13.420;2023-08-12T03:02:01;20.50;56.30
81222;DHT22;70691;52.492;13.420;2023-08-12T03:04:29;20.50;56.30
81222;DHT22;70691;52.492;13.420;2023-08-12T03:06:54;20.50;56.40
81222;DHT22;70691;52.492;13.420;2023-08-12T03:09:20;20.60;56.30
81222;DHT22;70691;52.492;13.420;2023-08-12T03:11:46;20.50;56.40
81222;DHT22;70691;52.492;13.420;2023-08-12T03:14:12;20.50;57.10
81222;DHT22;70691;52.492;13.420;2023-08-12T03:16:37;20.40;56.80
81222;DHT22;70691;52.492;13.420;2023-08-12T03:19:03;20.30;57.30
81222;DHT22;70691;52.492;13.420;2023-08-12T03:21:30;20.30;57.20
81222;DHT22;70691;52.492;13.420;2023-08-12T03:23:56;20.40;56.90
81222;DHT22;70691;52.492;13.420;2023-08-12T03:26:22;20.30;57.00
81222;DHT22;70691;52.492;13.420;2023-08-12T03:28:47;20.40;56.80
81222;DHT22;70691;52.492;13.420;2023-08-12T03:31:13;20.40;56.80
81222;DHT22;70691;52.492;13.420;2023-08-12T03:33:38;20.30;57.10
81222;DHT22;70691;52.492;13.420;2023-08-12T03:36:04;20.30;56.70
81222;DHT22;70691;52.492;13.420;2023-08-12T03:38:30;20.40;56.70
81222;DHT22;70691;52.492;13.420;2023-08-12T03:40:55;20.40;56.70
81222;DHT22;70691;52.492;13.420;2023-08-12T03:43:21;20.40;56.60
81222;DHT22;70691;52.492;13.420;2023-08-12T03:45:47;20.40;56.40
81222;DHT22;70691;52.492;13.420;2023-08-12T03:48:13;20.30;56.60
81222;DHT22;70691;52.492;13.420;2023-08-12T03:50:39;20.30;56.70
81222;DHT22;70691;52.492;13.420;2023-08-12T03:53:05;20.30;56.80
81222;DHT22;70691;52.492;13.420;2023-08-12T03:55:32;20.20;57.00
81222;DHT22;70691;52.492;13.420;2023-08-12T03:57:58;20.20;57.00
81222;DHT22;70691;52.492;13.420;2023-08-12T04:00:24;20.20;56.90
81222;DHT22;70691;52.492;13.420;2023-08-12T04:02:50;20.20;57.10
81222;DHT22;70691;52.492;13.420;2023-08-12T04:05:16;20.10;57.30
81222;DHT22;70691;52.492;13.420;2023-08-12T04:07:42;20.20;57.20
81222;DHT22;70691;52.492;13.420;2023-08-12T04:10:08;20.20;57.20
81222;DHT22;70691;52.492;13.420;2023-08-12T04:12:33;20.30;56.60
81222;DHT22;70691;52.492;13.420;2023-08-12T04:14:59;20.30;56.60
81222;DHT22;70691;52.492;13.420;2023-08-12T04:17:27;20.30;56.50
81222;DHT22;70691;52.492;13.420;2023-08-12T04:19:53;20.20;56.60
81222;DHT22;70691;52.492;13.420;2023-08-12T04:22:18;20.30;56.90
81222;DHT22;70691;52.492;13.420;2023-08-12T04:24:44;20.30;57.00
81222;DHT22;70691;52.492;13.420;2023-08-12T04:27:10;20.20;56.90
81222;DHT22;70691;52.492;13.420;2023-08-12T04:29:36;20.20;56.90
81222;DHT22;70691;52.492;13.420;2023-08-12T04:32:01;20.20;57.00
81222;DHT22;70691;52.492;13.420;2023-08-12T04:34:27;20.20;56.90
81222;DHT22;70691;52.492;13.420;2023-08-12T04:36:53;20.20;56.90
81222;DHT22;70691;52.492;13.420;2023-08-12T04:39:18;20.30;56.70
81222;DHT22;70691;52.492;13.420;2023-08-12T04:41:44;20.20;56.80
81222;DHT22;70691;52.492;13.420;2023-08-12T04:44:09;20.30;56.60
81222;DHT22;70691;52.492;13.420;2023-08-12T04:46:35;20.30;56.60
81222;DHT22;70691;52.492;13.420;2023-08-12T04:49:01;20.20;57.10
81222;DHT22;70691;52.492;13.420;2023-08-12T04:51:26;20.10;57.40
81222;DHT22;70691;52.492;13.420;2023-08-12T04:53:52;20.10;57.50
81222;DHT22;70691;52.492;13.420;2023-08-12T04:56:17;20.20;57.50
81222;DHT22;70691;52.492;13.420;2023-08-12T04:58:43;20.20;57.30
81222;DHT22;70691;52.492;13.420;2023-08-12T05:01:09;20.30;57.10
81222;DHT22;70691;52.492;13.420;2023-08-12T05:03:34;20.40;56.50
81222;DHT22;70691;52.492;13.420;2023-08-12T05:06:00;20.50;56.20
81222;DHT22;70691;52.492;13.420;2023-08-12T05:08:26;20.70;55.00
81222;DHT22;70691;52.492;13.420;2023-08-12T05:10:51;20.80;54.60
81222;DHT22;70691;52.492;13.420;2023-08-12T05:13:17;21.00;54.30
81222;DHT22;70691;52.492;13.420;2023-08-12T05:15:47;21.10;53.60
81222;DHT22;70691;52.492;13.420;2023-08-12T05:18:13;21.20;53.30
81222;DHT22;70691;52.492;13.420;2023-08-12T05:20:40;21.30;53.40
81222;DHT22;70691;52.492;13.420;2023-08-12T05:23:07;21.40;52.90
81222;DHT22;70691;52.492;13.420;2023-08-12T05:25:32;21.60;52.30
81222;DHT22;70691;52.492;13.420;2023-08-12T05:27:58;21.70;51.80
81222;DHT22;70691;52.492;13.420;2023-08-12T05:30:24;21.80;51.60
81222;DHT22;70691;52.492;13.420;2023-08-12T05:32:49;22.00;50.70
81222;DHT22;70691;52.492;13.420;2023-08-12T05:35:15;22.20;50.50
81222;DHT22;70691;52.492;13.420;2023-08-12T05:37:41;22.30;49.90
81222;DHT22;70691;52.492;13.420;2023-08-12T05:40:08;22.40;49.40
81222;DHT22;70691;52.492;13.420;2023-08-12T05:42:35;22.60;49.20
81222;DHT22;70691;52.492;13.420;2023-08-12T05:45:00;22.70;48.40
81222;DHT22;70691;52.492;13.420;2023-08-12T05:47:26;22.70;48.60
81222;DHT22;70691;52.492;13.420;2023-08-12T05:49:52;22.70;48.80
81222;DHT22;70691;52.492;13.420;2023-08-12T05:52:17;22.80;48.70
81222;DHT22;70691;52.492;13.420;2023-08-12T05:54:43;22.80;48.40
81222;DHT22;70691;52.492;13.420;2023-08-12T05:57:08;22.80;48.30
81222;DHT22;70691;52.492;13.420;2023-08-12T05:59:34;22.80;48.30
81222;DHT22;70691;52.492;13.420;2023-08-12T06:02:00;22.80;48.40
81222;DHT22;70691;52.492;13.420;2023-08-12T06:04:25;22.80;48.40
81222;DHT22;70691;52.492;13.420;2023-08-12T06:06:51;22.80;48.30
81222;DHT22;70691;52.492;13.420;2023-08-12T06:09:16;22.90;48.30
81222;DHT22;70691;52.492;13.420;2023-08-12T06:11:42;22.90;48.30
81222;DHT22;70691;52.492;13.420;2023-08-12T06:14:08;22.90;48.40
81222;DHT22;70691;52.492;13.420;2023-08-12T06:16:33;22.90;48.30
81222;DHT22;70691;52.492;13.420;2023-08-12T06:18:59;23.00;48.40
81222;DHT22;70691;52.492;13.420;2023-08-12T06:21:25;23.10;48.10
81222;DHT22;70691;52.492;13.420;2023-08-12T06:23:51;23.20;48.00
81222;DHT22;70691;52.492;13.420;2023-08-12T06:26:16;23.20;48.00
81222;DHT22;70691;52.492;13.420;2023-08-12T06:28:43;23.30;47.30
81222;DHT22;70691;52.492;13.420;2023-08-12T06:31:09;23.30;47.60
81222;DHT22;70691;52.492;13.420;2023-08-12T06:33:34;23.30;47.60
81222;DHT22;70691;52.492;13.420;2023-08-12T06:36:00;23.30;47.50
81222;DHT22;70691;52.492;13.420;2023-08-12T06:38:25;23.40;47.20
81222;DHT22;70691;52.492;13.420;2023-08-12T06:40:51;23.50;47.00
81222;DHT22;70691;52.492;13.420;2023-08-12T06:43:17;23.50;47.30
81222;DHT22;70691;52.492;13.420;2023-08-12T06:45:42;23.50;47.40
81222;DHT22;70691;52.492;13.420;2023-08-12T06:48:08;23.60;47.20
81222;DHT22;70691;52.492;13.420;2023-08-12T06:50:33;23.70;47.00
81222;DHT22;70691;52.492;13.420;2023-08-12T06:52:59;23.70;46.80
81222;DHT22;70691;52.492;13.420;2023-08-12T06:55:25;23.70;46.80
81222;DHT22;70691;52.492;13.420;2023-08-12T06:57:50;23.70;47.10
81222;DHT22;70691;52.492;13.420;2023-08-12T07:00:16;23.70;47.20
81222;DHT22;70691;52.492;13.420;2023-08-12T07:02:42;23.80;47.10
81222;DHT22;70691;52.492;13.420;2023-08-12T07:05:08;23.80;46.90
81222;DHT22;70691;52.492;13.420;2023-08-12T07:07:34;23.80;46.90
81222;DHT22;70691;52.492;13.420;2023-08-12T07:10:00;23.90;46.90
81222;DHT22;70691;52.492;13.420;2023-08-12T07:12:25;24.00;46.50
81222;DHT22;70691;52.492;13.420;2023-08-12T07:14:52;24.10;46.20
81222;DHT22;70691;52.492;13.420;2023-08-12T07:17:18;24.20;46.20
81222;DHT22;70691;52.492;13.420;2023-08-12T07:19:43;24.20;45.90
81222;DHT22;70691;52.492;13.420;2023-08-12T07:22:09;24.20;46.20
81222;DHT22;70691;52.492;13.420;2023-08-12T07:24:35;24.30;46.30
81222;DHT22;70691;52.492;13.420;2023-08-12T07:27:00;24.40;46.10
81222;DHT22;70691;52.492;13.420;2023-08-12T07:29:26;24.60;45.10
81222;DHT22;70691;52.492;13.420;2023-08-12T07:31:52;24.80;45.00
81222;DHT22;70691;52.492;13.420;2023-08-12T07:34:18;24.90;44.80
81222;DHT22;70691;52.492;13.420;2023-08-12T07:36:44;25.00;44.10
81222;DHT22;70691;52.492;13.420;2023-08-12T07:39:09;25.10;44.30
81222;DHT22;70691;52.492;13.420;2023-08-12T07:41:35;25.20;44.40
81222;DHT22;70691;52.492;13.420;2023-08-12T07:44:01;25.30;44.30
81222;DHT22;70691;52.492;13.420;2023-08-12T07:46:28;25.30;44.20
81222;DHT22;70691;52.492;13.420;2023-08-12T07:48:55;25.40;44.40
81222;DHT22;70691;52.492;13.420;2023-08-12T07:51:21;25.50;44.30
81222;DHT22;70691;52.492;13.420;2023-08-12T07:53:46;25.50;43.70
81222;DHT22;70691;52.492;13.420;2023-08-12T07:56:12;25.60;43.30
81222;DHT22;70691;52.492;13.420;2023-08-12T07:58:38;25.70;43.40
81222;DHT22;70691;52.492;13.420;2023-08-12T08:01:03;25.70;43.30
81222;DHT22;70691;52.492;13.420;2023-08-12T08:03:30;25.80;43.30
81222;DHT22;70691;52.492;13.420;2023-08-12T08:05:56;25.80;43.30
81222;DHT22;70691;52.492;13.420;2023-08-12T08:08:21;25.90;43.40
81222;DHT22;70691;52.492;13.420;2023-08-12T08:10:47;25.90;43.40
81222;DHT22;70691;52.492;13.420;2023-08-12T08:13:13;25.90;43.40
81222;DHT22;70691;52.492;13.420;2023-08-12T08:15:38;25.90;43.40
81222;DHT22;70691;52.492;13.420;2023-08-12T08:18:04;25.90;43.50
81222;DHT22;70691;52.492;13.420;2023-08-12T08:20:30;26.00;43.50
81222;DHT22;70691;52.492;13.420;2023-08-12T08:22:56;26.00;43.40
81222;DHT22;70691;52.492;13.420;2023-08-12T08:25:22;26.10;44.00
81222;DHT22;70691;52.492;13.420;2023-08-12T08:27:48;26.10;43.00
81222;DHT22;70691;52.492;13.420;2023-08-12T08:30:14;26.00;43.30
81222;DHT22;70691;52.492;13.420;2023-08-12T08:32:40;25.90;43.60
81222;DHT22;70691;52.492;13.420;2023-08-12T08:35:06;25.90;44.00
81222;DHT22;70691;52.492;13.420;2023-08-12T08:37:31;25.80;44.40
81222;DHT22;70691;52.492;13.420;2023-08-12T08:39:57;25.60;44.60
81222;DHT22;70691;52.492;13.420;2023-08-12T08:42:26;25.50;44.70
81222;DHT22;70691;52.492;13.420;2023-08-12T08:44:52;25.50;45.10
81222;DHT22;70691;52.492;13.420;2023-08-12T08:47:26;25.40;45.70
81222;DHT22;70691;52.492;13.420;2023-08-12T08:49:55;25.30;46.10
81222;DHT22;70691;52.492;13.420;2023-08-12T08:52:23;25.20;46.60
81222;DHT22;70691;52.492;13.420;2023-08-12T08:54:50;25.20;47.80
81222;DHT22;70691;52.492;13.420;2023-08-12T08:57:16;25.20;46.90
81222;DHT22;70691;52.492;13.420;2023-08-12T08:59:42;25.20;47.10
81222;DHT22;70691;52.492;13.420;2023-08-12T09:02:15;25.20;47.20
81222;DHT22;70691;52.492;13.420;2023-08-12T09:04:42;25.20;47.50
81222;DHT22;70691;52.492;13.420;2023-08-12T09:07:08;25.20;47.80
81222;DHT22;70691;52.492;13.420;2023-08-12T09:09:34;25.20;48.10
81222;DHT22;70691;52.492;13.420;2023-08-12T09:12:01;25.30;48.60
81222;DHT22;70691;52.492;13.420;2023-08-12T09:14:27;25.30;48.70
81222;DHT22;70691;52.492;13.420;2023-08-12T09:16:55;25.40;48.40
81222;DHT22;70691;52.492;13.420;2023-08-12T09:19:20;25.50;47.30
81222;DHT22;70691;52.492;13.420;2023-08-12T09:21:54;25.50;47.00
81222;DHT22;70691;52.492;13.420;2023-08-12T09:24:26;25.60;47.20
81222;DHT22;70691;52.492;13.420;2023-08-12T09:26:54;25.60;47.40
81222;DHT22;70691;52.492;13.420;2023-08-12T09:29:34;25.60;47.40
81222;DHT22;70691;52.492;13.420;2023-08-12T09:32:17;25.90;48.10
81222;DHT22;70691;52.492;13.420;2023-08-12T09:34:54;26.10;46.30
81222;DHT22;70691;52.492;13.420;2023-08-12T09:37:21;26.30;45.80
81222;DHT22;70691;52.492;13.420;2023-08-12T09:39:48;26.50;45.40
81222;DHT22;70691;52.492;13.420;2023-08-12T09:42:15;26.70;44.60
81222;DHT22;70691;52.492;13.420;2023-08-12T09:44:41;26.90;43.50
81222;DHT22;70691;52.492;13.420;2023-08-12T09:47:07;26.90;43.30
81222;DHT22;70691;52.492;13.420;2023-08-12T09:49:36;26.90;43.20
81222;DHT22;70691;52.492;13.420;2023-08-12T09:52:04;26.80;43.50
81222;DHT22;70691;52.492;13.420;2023-08-12T09:54:33;26.80;43.90
81222;DHT22;70691;52.492;13.420;2023-08-12T09:57:01;26.80;43.70
81222;DHT22;70691;52.492;13.420;2023-08-12T09:59:31;26.80;43.80
81222;DHT22;70691;52.492;13.420;2023-08-12T10:02:01;26.90;43.80
81222;DHT22;70691;52.492;13.420;2023-08-12T10:04:37;26.90;43.70
81222;DHT22;70691;52.492;13.420;2023-08-12T10:07:05;27.10;43.50
81222;DHT22;70691;52.492;13.420;2023-08-12T10:09:35;27.30;43.30
81222;DHT22;70691;52.492;13.420;2023-08-12T10:12:09;27.40;42.90
81222;DHT22;70691;52.492;13.420;2023-08-12T10:14:35;27.40;43.00
81222;DHT22;70691;52.492;13.420;2023-08-12T10:17:01;27.40;43.30
81222;DHT22;70691;52.492;13.420;2023-08-12T10:19:28;27.40;43.60
81222;DHT22;70691;52.492;13.420;2023-08-12T10:21:56;27.30;43.70
81222;DHT22;70691;52.492;13.420;2023-08-12T10:24:27;27.30;43.80
81222;DHT22;70691;52.492;13.420;2023-08-12T10:26:53;27.30;43.90
81222;DHT22;70691;52.492;13.420;2023-08-12T10:29:20;27.30;44.00
81222;DHT22;70691;52.492;13.420;2023-08-12T10:31:47;27.40;44.00
81222;DHT22;70691;52.492;13.420;2023-08-12T10:34:23;27.50;43.70
81222;DHT22;70691;52.492;13.420;2023-08-12T10:36:54;27.60;43.50
81222;DHT22;70691;52.492;13.420;2023-08-12T10:39:28;27.60;42.90
81222;DHT22;70691;52.492;13.420;2023-08-12T10:41:55;27.70;43.10
81222;DHT22;70691;52.492;13.420;2023-08-12T10:44:24;27.70;43.10
81222;DHT22;70691;52.492;13.420;2023-08-12T10:46:52;27.70;43.30
81222;DHT22;70691;52.492;13.420;2023-08-12T10:49:21;27.80;43.30
81222;DHT22;70691;52.492;13.420;2023-08-12T10:51:52;27.80;42.90
81222;DHT22;70691;52.492;13.420;2023-08-12T10:57:03;27.90;43.70
81222;DHT22;70691;52.492;13.420;2023-08-12T11:02:30;28.00;43.80
81222;DHT22;70691;52.492;13.420;2023-08-12T11:10:18;28.20;43.90
81222;DHT22;70691;52.492;13.420;2023-08-12T11:12:55;28.20;43.80
81222;DHT22;70691;52.492;13.420;2023-08-12T11:15:40;28.20;43.70
81222;DHT22;70691;52.492;13.420;2023-08-12T11:18:15;28.20;43.90
81222;DHT22;70691;52.492;13.420;2023-08-12T11:20:42;28.20;44.00
81222;DHT22;70691;52.492;13.420;2023-08-12T11:23:09;28.30;44.20
81222;DHT22;70691;52.492;13.420;2023-08-12T11:25:36;28.30;44.00
81222;DHT22;70691;52.492;13.420;2023-08-12T11:28:04;28.30;43.70
81222;DHT22;70691;52.492;13.420;2023-08-12T11:30:30;28.40;43.40
81222;DHT22;70691;52.492;13.420;2023-08-12T11:32:56;28.40;42.90
81222;DHT22;70691;52.492;13.420;2023-08-12T11:35:23;28.30;43.70
81222;DHT22;70691;52.492;13.420;2023-08-12T11:37:53;28.30;42.80
81222;DHT22;70691;52.492;13.420;2023-08-12T11:40:21;28.20;42.90
81222;DHT22;70691;52.492;13.420;2023-08-12T11:42:48;28.10;42.90
81222;DHT22;70691;52.492;13.420;2023-08-12T11:45:17;28.00;42.90
81222;DHT22;70691;52.492;13.420;2023-08-12T11:47:43;27.90;42.70
81222;DHT22;70691;52.492;13.420;2023-08-12T11:50:10;27.80;42.90
81222;DHT22;70691;52.492;13.420;2023-08-12T11:52:37;27.60;43.00
81222;DHT22;70691;52.492;13.420;2023-08-12T11:55:05;27.60;43.40
81222;DHT22;70691;52.492;13.420;2023-08-12T11:57:30;27.60;44.00
81222;DHT22;70691;52.492;13.420;2023-08-12T12:00:00;27.70;44.40
81222;DHT22;70691;52.492;13.420;2023-08-12T12:02:28;27.70;44.20
81222;DHT22;70691;52.492;13.420;2023-08-12T12:04:53;27.70;44.10
81222;DHT22;70691;52.492;13.420;2023-08-12T12:07:20;27.70;44.30
81222;DHT22;70691;52.492;13.420;2023-08-12T12:09:47;27.70;44.60
81222;DHT22;70691;52.492;13.420;2023-08-12T12:12:13;27.70;44.90
81222;DHT22;70691;52.492;13.420;2023-08-12T12:14:39;27.70;44.90
81222;DHT22;70691;52.492;13.420;2023-08-12T12:19:58;27.80;44.90
81222;DHT22;70691;52.492;13.420;2023-08-12T12:22:32;27.80;45.10
81222;DHT22;70691;52.492;13.420;2023-08-12T12:25:15;27.80;44.90
81222;DHT22;70691;52.492;13.420;2023-08-12T12:27:43;27.80;45.30
81222;DHT22;70691;52.492;13.420;2023-08-12T12:30:10;27.80;45.10
81222;DHT22;70691;52.492;13.420;2023-08-12T12:32:37;27.70;45.10
81222;DHT22;70691;52.492;13.420;2023-08-12T12:35:03;27.60;45.60
81222;DHT22;70691;52.492;13.420;2023-08-12T12:37:29;27.40;45.90
81222;DHT22;70691;52.492;13.420;2023-08-12T12:39:55;27.40;46.00
81222;DHT22;70691;52.492;13.420;2023-08-12T12:42:21;27.30;46.10
81222;DHT22;70691;52.492;13.420;2023-08-12T12:44:47;27.20;46.20
81222;DHT22;70691;52.492;13.420;2023-08-12T12:47:12;27.20;46.40
81222;DHT22;70691;52.492;13.420;2023-08-12T12:49:39;27.10;46.50
81222;DHT22;70691;52.492;13.420;2023-08-12T12:52:06;27.10;46.70
81222;DHT22;70691;52.492;13.420;2023-08-12T12:54:32;27.10;46.20
81222;DHT22;70691;52.492;13.420;2023-08-12T12:56:58;27.30;45.90
81222;DHT22;70691;52.492;13.420;2023-08-12T12:59:24;27.50;45.00
81222;DHT22;70691;52.492;13.420;2023-08-12T13:01:50;27.70;44.90
81222;DHT22;70691;52.492;13.420;2023-08-12T13:04:15;27.80;45.10
81222;DHT22;70691;52.492;13.420;2023-08-12T13:06:41;27.90;44.90
81222;DHT22;70691;52.492;13.420;2023-08-12T13:09:07;28.10;45.10
81222;DHT22;70691;52.492;13.420;2023-08-12T13:11:33;28.10;44.90
81222;DHT22;70691;52.492;13.420;2023-08-12T13:14:02;28.20;44.80
81222;DHT22;70691;52.492;13.420;2023-08-12T13:16:28;28.30;44.70
81222;DHT22;70691;52.492;13.420;2023-08-12T13:18:54;28.50;44.20
81222;DHT22;70691;52.492;13.420;2023-08-12T13:21:20;28.60;43.90
81222;DHT22;70691;52.492;13.420;2023-08-12T13:23:46;28.70;43.70
81222;DHT22;70691;52.492;13.420;2023-08-12T13:26:11;28.90;43.50
81222;DHT22;70691;52.492;13.420;2023-08-12T13:28:37;29.10;42.70
81222;DHT22;70691;52.492;13.420;2023-08-12T13:31:03;29.20;42.10
81222;DHT22;70691;52.492;13.420;2023-08-12T13:33:28;29.20;41.90
81222;DHT22;70691;52.492;13.420;2023-08-12T13:35:54;29.30;41.60
81222;DHT22;70691;52.492;13.420;2023-08-12T13:38:20;29.50;41.10
81222;DHT22;70691;52.492;13.420;2023-08-12T13:40:46;29.50;40.90
81222;DHT22;70691;52.492;13.420;2023-08-12T13:43:11;29.50;40.90
81222;DHT22;70691;52.492;13.420;2023-08-12T13:45:37;29.50;41.60
81222;DHT22;70691;52.492;13.420;2023-08-12T13:48:03;29.40;41.50
81222;DHT22;70691;52.492;13.420;2023-08-12T13:50:28;29.40;41.10
81222;DHT22;70691;52.492;13.420;2023-08-12T13:52:54;29.50;40.80
81222;DHT22;70691;52.492;13.420;2023-08-12T13:55:20;29.50;40.70
81222;DHT22;70691;52.492;13.420;2023-08-12T13:57:49;29.60;40.80
81222;DHT22;70691;52.492;13.420;2023-08-12T14:00:14;29.70;40.20
81222;DHT22;70691;52.492;13.420;2023-08-12T14:02:41;29.90;38.90
81222;DHT22;70691;52.492;13.420;2023-08-12T14:05:07;29.90;39.20
81222;DHT22;70691;52.492;13.420;2023-08-12T14:07:33;29.90;39.20
81222;DHT22;70691;52.492;13.420;2023-08-12T14:09:59;30.00;38.90
81222;DHT22;70691;52.492;13.420;2023-08-12T14:12:25;30.00;38.50
81222;DHT22;70691;52.492;13.420;2023-08-12T14:14:50;30.10;38.70
81222;DHT22;70691;52.492;13.420;2023-08-12T14:17:16;30.10;38.70
81222;DHT22;70691;52.492;13.420;2023-08-12T14:19:44;30.10;38.90
81222;DHT22;70691;52.492;13.420;2023-08-12T14:22:13;30.00;39.90
81222;DHT22;70691;52.492;13.420;2023-08-12T14:24:38;29.90;38.90
81222;DHT22;70691;52.492;13.420;2023-08-12T14:27:04;29.90;38.50
81222;DHT22;70691;52.492;13.420;2023-08-12T14:29:30;29.80;38.30
81222;DHT22;70691;52.492;13.420;2023-08-12T14:31:56;29.80;38.30
81222;DHT22;70691;52.492;13.420;2023-08-12T14:34:22;29.90;38.20
81222;DHT22;70691;52.492;13.420;2023-08-12T14:36:48;29.80;38.40
81222;DHT22;70691;52.492;13.420;2023-08-12T14:39:14;29.90;38.50
81222;DHT22;70691;52.492;13.420;2023-08-12T14:41:39;30.00;38.40
81222;DHT22;70691;52.492;13.420;2023-08-12T14:44:05;30.10;38.20
81222;DHT22;70691;52.492;13.420;2023-08-12T14:46:31;30.10;38.10
81222;DHT22;70691;52.492;13.420;2023-08-12T14:48:56;30.10;38.40
81222;DHT22;70691;52.492;13.420;2023-08-12T14:51:22;30.20;38.50
81222;DHT22;70691;52.492;13.420;2023-08-12T14:53:48;30.30;38.00
81222;DHT22;70691;52.492;13.420;2023-08-12T14:56:14;30.40;37.60
81222;DHT22;70691;52.492;13.420;2023-08-12T14:58:40;30.50;37.30
81222;DHT22;70691;52.492;13.420;2023-08-12T15:01:05;30.60;37.10
81222;DHT22;70691;52.492;13.420;2023-08-12T15:03:32;30.60;37.30
81222;DHT22;70691;52.492;13.420;2023-08-12T15:06:02;30.50;37.40
81222;DHT22;70691;52.492;13.420;2023-08-12T15:08:29;30.50;37.60
81222;DHT22;70691;52.492;13.420;2023-08-12T15:10:55;30.50;37.60
81222;DHT22;70691;52.492;13.420;2023-08-12T15:13:21;30.40;37.50
81222;DHT22;70691;52.492;13.420;2023-08-12T15:15:48;30.40;37.80
81222;DHT22;70691;52.492;13.420;2023-08-12T15:18:14;30.30;38.30
81222;DHT22;70691;52.492;13.420;2023-08-12T15:20:40;30.10;38.50
81222;DHT22;70691;52.492;13.420;2023-08-12T15:23:06;30.00;38.90
81222;DHT22;70691;52.492;13.420;2023-08-12T15:25:31;29.80;39.30